Time;durP1;ratioP1;P1;durP2;ratioP2;P2;SDS_P1;SDS_P2;PMS_P1;PMS_P2;Temp;Humidity;BMP_temperature;BMP_pressure;BME280_temperature;BME280_humidity;BME280_pressure;Samples;Min_cycle;Max_cycle;Signal;HPM_P1;HPM_P2
2021/04/23 00:00:18;;;;;;;12.52;8.45;;;13.00;75.20;;;;;;5117294;28;20043;-72
2021/04/23 00:02:46;;;;;;;11.88;8.57;;;13.00;75.00;;;;;;5117229;28;20016;-72
2021/04/23 00:05:13;;;;;;;15.05;8.07;;;13.00;75.20;;;;;;5117436;28;20028;-72
2021/04/23 00:07:38;;;;;;;11.27;7.60;;;13.10;75.20;;;;;;5117042;28;20024;-72
2021/04/23 00:10:09;;;;;;;12.30;7.88;;;13.00;75.40;;;;;;5116885;28;20034;-72
2021/04/23 00:12:35;;;;;;;16.73;8.60;;;13.00;75.50;;;;;;5116870;28;20115;-72
2021/04/23 00:15:01;;;;;;;12.13;7.75;;;13.10;75.50;;;;;;5116967;28;20380;-73
2021/04/23 00:17:27;;;;;;;14.35;8.43;;;13.10;76.20;;;;;;5116839;28;20055;-72
2021/04/23 00:19:53;;;;;;;13.98;8.20;;;13.10;76.00;;;;;;5117099;28;20059;-72
2021/04/23 00:22:18;;;;;;;11.93;7.80;;;13.10;75.90;;;;;;5116859;28;20023;-72
2021/04/23 00:24:44;;;;;;;12.20;8.27;;;13.10;76.00;;;;;;5115442;28;20100;-73
2021/04/23 00:27:10;;;;;;;14.32;8.13;;;13.10;76.10;;;;;;5116961;28;20031;-72
2021/04/23 00:29:36;;;;;;;12.27;8.52;;;13.10;75.70;;;;;;5116694;28;20110;-72
2021/04/23 00:34:48;;;;;;;15.27;8.10;;;13.10;75.70;;;;;;5116998;28;20030;-72
2021/04/23 00:37:14;;;;;;;15.00;8.82;;;13.10;76.40;;;;;;5116777;28;20020;-72
2021/04/23 00:39:40;;;;;;;17.08;8.88;;;13.10;76.10;;;;;;5116198;28;20467;-72
2021/04/23 00:42:06;;;;;;;13.32;8.77;;;13.00;75.80;;;;;;5116388;27;20051;-72
2021/04/23 00:44:33;;;;;;;14.82;8.48;;;13.00;76.20;;;;;;5116521;28;20036;-72
2021/04/23 00:46:58;;;;;;;11.57;8.50;;;13.00;76.60;;;;;;5116691;28;20035;-71
2021/04/23 00:49:24;;;;;;;11.85;8.60;;;13.00;76.50;;;;;;5116279;28;20388;-72
2021/04/23 00:51:57;;;;;;;10.43;7.88;;;12.90;76.60;;;;;;5116470;28;20023;-71
2021/04/23 00:54:23;;;;;;;;;;;13.00;76.50;;;;;;5116811;28;20484;-72
2021/04/23 00:56:49;;;;;;;15.13;7.50;;;13.00;76.30;;;;;;5115874;28;20428;-70
2021/04/23 00:59:15;;;;;;;17.70;8.23;;;13.00;76.60;;;;;;5113708;28;20174;-69
2021/04/23 01:02:07;;;;;;;12.68;8.15;;;13.10;76.60;;;;;;5113414;28;20024;-72
2021/04/23 01:04:33;;;;;;;13.25;7.40;;;13.00;76.70;;;;;;5114146;28;20484;-72
2021/04/23 01:06:58;;;;;;;10.93;7.20;;;13.00;76.50;;;;;;5115730;27;20019;-68
2021/04/23 01:09:27;;;;;;;11.07;7.40;;;13.00;76.30;;;;;;5116143;28;20035;-69
2021/04/23 01:11:55;;;;;;;11.27;7.35;;;13.00;76.30;;;;;;5115760;28;20046;-69
2021/04/23 01:14:21;;;;;;;11.73;7.07;;;13.00;76.00;;;;;;5115637;28;20069;-69
2021/04/23 01:16:48;;;;;;;11.30;7.50;;;13.00;76.20;;;;;;5115428;28;20028;-69
2021/04/23 01:19:19;;;;;;;14.95;7.55;;;12.90;76.20;;;;;;5115544;28;20379;-69
2021/04/23 01:21:45;;;;;;;13.02;7.07;;;12.90;76.10;;;;;;5114306;28;20127;-69
2021/04/23 01:24:12;;;;;;;11.02;6.70;;;12.80;76.10;;;;;;5115676;28;20124;-68
2021/04/23 01:26:41;;;;;;;12.63;6.70;;;12.90;76.20;;;;;;5115528;28;20490;-70
2021/04/23 01:29:08;;;;;;;9.77;6.57;;;12.90;76.20;;;;;;5115521;28;20433;-70
2021/04/23 01:31:38;;;;;;;11.88;7.47;;;12.80;76.10;;;;;;5115196;28;20110;-69
2021/04/23 01:34:10;;;;;;;11.93;6.20;;;12.80;75.90;;;;;;5115510;28;20063;-68
2021/04/23 01:36:37;;;;;;;12.43;6.18;;;12.70;76.00;;;;;;5115449;28;20365;-69
2021/04/23 01:39:06;;;;;;;9.07;6.30;;;12.70;76.00;;;;;;5115482;27;20024;-69
2021/04/23 01:41:32;;;;;;;13.43;7.03;;;12.70;76.10;;;;;;5115263;28;20064;-69
2021/04/23 01:43:58;;;;;;;15.10;6.35;;;12.70;76.00;;;;;;5115005;28;20111;-68
2021/04/23 01:46:24;;;;;;;9.38;6.13;;;12.60;76.20;;;;;;5115103;28;20393;-69
2021/04/23 01:48:50;;;;;;;14.15;7.15;;;12.60;76.20;;;;;;5115318;28;20022;-68
2021/04/23 01:51:16;;;;;;;10.27;6.25;;;12.60;76.20;;;;;;5114733;28;20549;-70
2021/04/23 01:53:42;;;;;;;11.15;6.57;;;12.50;76.30;;;;;;5114869;28;20020;-70
2021/04/23 01:56:08;;;;;;;12.43;6.82;;;12.60;77.00;;;;;;5114915;28;20065;-70
2021/04/23 01:58:36;;;;;;;11.18;6.57;;;12.50;76.20;;;;;;5114989;28;20034;-70
2021/04/23 02:01:05;;;;;;;12.55;6.55;;;12.50;76.30;;;;;;5114884;28;20455;-72
2021/04/23 02:03:30;;;;;;;10.52;6.03;;;12.40;76.50;;;;;;5115000;28;20024;-73
2021/04/23 02:05:56;;;;;;;11.88;6.45;;;12.40;76.40;;;;;;5114895;28;20034;-72
2021/04/23 02:08:25;;;;;;;10.48;6.15;;;12.30;76.30;;;;;;5113784;28;20103;-70
2021/04/23 02:10:58;;;;;;;8.32;6.35;;;12.30;76.40;;;;;;5114759;28;20472;-73
2021/04/23 02:13:27;;;;;;;10.02;6.85;;;12.30;76.40;;;;;;5114670;28;20031;-72
2021/04/23 02:15:54;;;;;;;11.25;6.30;;;12.30;76.60;;;;;;5114633;28;20045;-72
2021/04/23 02:18:21;;;;;;;12.20;7.13;;;12.20;76.50;;;;;;5114903;28;20054;-73
2021/04/23 02:20:49;;;;;;;9.43;6.65;;;12.20;76.40;;;;;;5114284;28;20073;-72
2021/04/23 02:23:15;;;;;;;10.57;6.95;;;12.20;76.20;;;;;;5114592;28;20056;-72
2021/04/23 02:25:41;;;;;;;17.55;8.50;;;12.10;75.90;;;;;;5114387;28;20058;-73
2021/04/23 02:28:09;;;;;;;9.13;6.72;;;12.10;75.90;;;;;;5114509;28;20024;-72
2021/04/23 02:30:42;;;;;;;11.70;6.78;;;12.10;75.80;;;;;;5114444;28;20030;-72
2021/04/23 02:33:11;;;;;;;11.77;6.40;;;12.00;75.30;;;;;;5114458;28;20097;-72
2021/04/23 02:35:38;;;;;;;12.43;7.22;;;12.00;75.00;;;;;;5114341;28;20349;-72
2021/04/23 02:38:05;;;;;;;10.48;6.90;;;11.90;75.00;;;;;;5114233;27;20024;-72
2021/04/23 02:40:31;;;;;;;9.50;6.90;;;11.80;75.30;;;;;;5114186;28;20094;-72
2021/04/23 02:43:01;;;;;;;11.60;7.53;;;11.80;75.40;;;;;;5114093;28;20471;-73
2021/04/23 02:45:30;;;;;;;11.38;7.07;;;11.70;75.30;;;;;;5113958;28;20031;-72
2021/04/23 02:47:56;;;;;;;10.23;7.22;;;11.60;75.70;;;;;;5114141;28;20084;-69
2021/04/23 02:50:25;;;;;;;11.77;7.15;;;11.60;75.80;;;;;;5114153;28;20028;-68
2021/04/23 02:52:51;;;;;;;12.00;7.65;;;11.50;75.90;;;;;;5113755;28;20020;-69
2021/04/23 02:55:17;;;;;;;12.15;7.45;;;11.50;76.30;;;;;;5114102;28;20784;-69
2021/04/23 02:58:03;;;;;;;11.82;7.30;;;11.50;76.50;;;;;;5113068;28;20024;-72
2021/04/23 03:00:34;;;;;;;10.88;7.57;;;11.50;76.50;;;;;;5110732;28;20047;-73
2021/04/23 03:03:00;;;;;;;11.75;7.35;;;11.50;76.60;;;;;;5111330;28;20478;-70
2021/04/23 03:05:27;;;;;;;10.38;7.43;;;11.50;76.90;;;;;;5113713;28;20055;-68
2021/04/23 03:07:54;;;;;;;10.00;7.90;;;11.60;77.00;;;;;;5113829;28;20024;-69
2021/04/23 03:10:26;;;;;;;9.75;7.28;;;11.50;77.30;;;;;;5113799;28;20039;-73
2021/04/23 03:12:53;;;;;;;10.85;7.63;;;11.50;77.10;;;;;;5113721;28;20019;-69
2021/04/23 03:15:24;;;;;;;17.90;7.70;;;11.50;77.30;;;;;;5113639;28;20030;-69
2021/04/23 03:17:57;;;;;;;14.55;7.63;;;11.50;77.40;;;;;;5113561;28;20023;-70
2021/04/23 03:20:25;;;;;;;13.60;7.72;;;11.50;77.60;;;;;;5113465;28;20026;-68
2021/04/23 03:22:51;;;;;;;11.90;7.82;;;11.50;77.40;;;;;;5113824;28;20547;-68
2021/04/23 03:25:17;;;;;;;12.43;7.40;;;11.60;77.60;;;;;;5112497;28;20407;-73
2021/04/23 03:27:43;;;;;;;10.55;7.47;;;11.50;77.10;;;;;;5113439;28;20020;-72
2021/04/23 03:30:18;;;;;;;10.38;6.45;;;11.60;77.70;;;;;;5113254;28;20538;-72
2021/04/23 03:32:44;;;;;;;8.65;6.85;;;11.50;77.90;;;;;;5113422;28;20051;-72
2021/04/23 03:35:10;;;;;;;10.23;6.72;;;11.60;77.80;;;;;;5113562;28;20098;-72
2021/04/23 03:37:37;;;;;;;8.75;6.60;;;11.60;78.10;;;;;;5113480;28;20110;-72
2021/04/23 03:40:05;;;;;;;10.00;6.65;;;11.60;77.70;;;;;;5113277;28;20032;-72
2021/04/23 03:42:31;;;;;;;12.75;7.38;;;11.60;77.00;;;;;;5112028;28;20019;-71
2021/04/23 03:44:57;;;;;;;12.02;6.97;;;11.60;76.80;;;;;;5113012;28;20475;-72
2021/04/23 03:47:23;;;;;;;12.57;7.40;;;11.60;76.30;;;;;;5113124;28;20024;-71
2021/04/23 03:49:49;;;;;;;13.40;7.75;;;11.60;77.00;;;;;;5113401;28;20051;-69
2021/04/23 03:52:15;;;;;;;11.15;6.72;;;11.50;76.60;;;;;;5113363;28;20023;-70
2021/04/23 03:54:41;;;;;;;14.20;7.35;;;11.60;76.40;;;;;;5113429;28;20024;-69
2021/04/23 03:57:07;;;;;;;9.55;7.35;;;11.50;75.60;;;;;;5113443;28;20024;-69
2021/04/23 03:59:33;;;;;;;13.95;7.53;;;11.50;75.90;;;;;;5113236;28;20031;-69
2021/04/23 04:01:59;;;;;;;10.45;7.22;;;11.40;76.00;;;;;;5113161;28;20468;-69
2021/04/23 04:04:26;;;;;;;12.13;7.43;;;11.40;76.80;;;;;;5113400;28;20035;-68
2021/04/23 04:06:51;;;;;;;10.80;7.07;;;11.40;76.30;;;;;;5113128;28;20100;-69
2021/04/23 04:09:18;;;;;;;10.07;7.13;;;11.30;76.40;;;;;;5113333;28;20062;-69
2021/04/23 04:11:45;;;;;;;10.48;7.25;;;11.30;76.60;;;;;;5113268;28;20480;-68
2021/04/23 04:14:12;;;;;;;11.25;7.18;;;11.30;76.70;;;;;;5113134;28;20491;-69
2021/04/23 04:16:37;;;;;;;12.00;7.50;;;11.20;76.70;;;;;;5113480;28;20474;-69
2021/04/23 04:19:03;;;;;;;13.35;7.78;;;11.20;76.70;;;;;;5113306;28;20043;-68
2021/04/23 04:21:29;;;;;;;11.82;7.53;;;11.20;76.90;;;;;;5112923;28;20052;-69
2021/04/23 04:23:55;;;;;;;12.00;7.38;;;11.20;77.20;;;;;;5112999;28;20075;-69
2021/04/23 04:26:21;;;;;;;10.13;6.50;;;11.20;77.30;;;;;;5112994;28;20024;-69
2021/04/23 04:28:47;;;;;;;12.38;7.05;;;11.30;77.30;;;;;;5113017;28;20043;-69
2021/04/23 04:31:13;;;;;;;9.60;6.88;;;11.20;77.30;;;;;;5113280;28;20368;-69
2021/04/23 04:33:39;;;;;;;10.30;7.32;;;11.30;77.30;;;;;;5116720;28;20064;-69
2021/04/23 04:36:05;;;;;;;10.95;7.75;;;11.30;77.30;;;;;;5116806;28;20514;-71
2021/04/23 04:38:31;;;;;;;14.07;7.88;;;11.30;77.60;;;;;;5116938;28;20055;-69
2021/04/23 04:40:57;;;;;;;11.18;7.32;;;11.20;77.90;;;;;;5116586;28;20028;-68
2021/04/23 04:43:23;;;;;;;13.20;6.95;;;11.20;77.90;;;;;;5116272;28;20026;-69
2021/04/23 04:45:49;;;;;;;11.20;6.63;;;11.30;78.00;;;;;;5116507;28;20040;-70
2021/04/23 04:48:16;;;;;;;9.23;6.00;;;11.30;78.10;;;;;;5116644;28;20037;-69
2021/04/23 04:50:44;;;;;;;12.40;6.50;;;11.30;78.00;;;;;;5116228;28;20019;-69
2021/04/23 04:53:10;;;;;;;11.18;6.53;;;11.30;77.70;;;;;;5116405;28;20031;-69
2021/04/23 04:55:40;;;;;;;14.38;6.68;;;11.30;77.20;;;;;;5116407;28;20023;-69
2021/04/23 04:58:07;;;;;;;14.65;6.97;;;11.30;77.80;;;;;;5116150;28;20032;-68
2021/04/23 05:00:34;;;;;;;11.88;7.50;;;11.40;77.60;;;;;;5116169;28;20020;-69
2021/04/23 05:02:59;;;;;;;14.45;7.45;;;11.40;76.90;;;;;;5116186;28;20376;-69
2021/04/23 05:05:27;;;;;;;17.92;7.90;;;11.40;76.90;;;;;;5116227;28;20028;-69
2021/04/23 05:07:54;;;;;;;20.95;7.80;;;11.40;76.50;;;;;;5116103;28;20024;-68
2021/04/23 05:10:20;;;;;;;16.60;8.00;;;11.40;76.50;;;;;;5115880;28;20502;-68
2021/04/23 05:12:45;;;;;;;12.50;7.25;;;11.40;76.40;;;;;;5115769;28;20023;-69
2021/04/23 05:15:12;;;;;;;14.07;7.97;;;11.40;76.40;;;;;;5115937;28;20099;-69
2021/04/23 05:17:38;;;;;;;16.83;7.90;;;11.40;76.40;;;;;;5116111;27;20053;-68
2021/04/23 05:20:06;;;;;;;11.43;7.45;;;11.40;76.90;;;;;;5115733;28;20019;-69
2021/04/23 05:22:34;;;;;;;15.27;8.25;;;11.30;77.20;;;;;;5115672;28;20113;-69
2021/04/23 05:25:00;;;;;;;18.25;7.75;;;11.30;77.20;;;;;;5115340;28;20179;-69
2021/04/23 05:27:26;;;;;;;14.35;7.82;;;11.30;77.70;;;;;;5115701;28;20080;-68
2021/04/23 05:29:52;;;;;;;14.93;8.32;;;11.40;78.30;;;;;;5115637;28;20076;-69
2021/04/23 05:32:20;;;;;;;19.83;6.50;;;11.30;78.20;;;;;;5115639;28;20106;-69
2021/04/23 05:34:49;;;;;;;16.98;6.45;;;11.30;78.40;;;;;;5115731;27;20034;-69
2021/04/23 05:37:15;;;;;;;9.15;6.10;;;11.40;78.80;;;;;;5115647;28;20027;-70
2021/04/23 05:39:44;;;;;;;15.82;5.90;;;11.40;78.50;;;;;;5115568;27;20148;-69
2021/04/23 05:42:14;;;;;;;13.85;5.38;;;11.50;78.30;;;;;;5115122;28;20012;-69
2021/04/23 05:44:40;;;;;;;9.82;5.72;;;11.60;78.10;;;;;;5115475;28;20035;-69
2021/04/23 05:47:06;;;;;;;10.52;5.63;;;11.70;78.20;;;;;;5115094;28;20054;-69
2021/04/23 05:49:33;;;;;;;9.25;6.03;;;11.70;77.80;;;;;;5115215;28;20061;-68
2021/04/23 05:52:00;;;;;;;12.57;6.45;;;11.80;77.00;;;;;;5115042;28;20019;-70
2021/04/23 05:54:26;;;;;;;12.30;6.13;;;11.90;76.40;;;;;;5115390;28;20050;-69
2021/04/23 05:56:52;;;;;;;10.32;6.38;;;11.90;76.50;;;;;;5115322;28;20051;-69
2021/04/23 05:59:17;;;;;;;9.18;6.50;;;12.00;76.10;;;;;;5115090;28;20016;-68
2021/04/23 06:01:44;;;;;;;13.07;5.70;;;12.10;76.50;;;;;;5115063;28;20022;-68
2021/04/23 06:04:10;;;;;;;7.05;5.78;;;12.20;76.20;;;;;;5115087;28;20015;-68
2021/04/23 06:06:35;;;;;;;7.78;5.45;;;12.20;75.70;;;;;;5114959;28;20033;-68
2021/04/23 06:09:02;;;;;;;8.43;5.90;;;12.30;74.70;;;;;;5113659;28;20020;-69
2021/04/23 06:11:28;;;;;;;8.48;5.53;;;12.40;74.60;;;;;;5110276;28;20035;-70
2021/04/23 06:13:54;;;;;;;10.02;5.50;;;12.40;74.50;;;;;;5113629;28;20023;-69
2021/04/23 06:16:20;;;;;;;9.75;5.85;;;12.50;74.10;;;;;;5113878;28;20023;-69
2021/04/23 06:18:46;;;;;;;7.43;5.80;;;12.60;73.90;;;;;;5114706;28;20026;-69
2021/04/23 06:21:11;;;;;;;10.25;5.40;;;12.70;73.70;;;;;;5114437;28;20024;-70
2021/04/23 06:23:37;;;;;;;12.48;5.70;;;12.70;73.90;;;;;;5114255;28;20020;-69
2021/04/23 06:26:04;;;;;;;8.93;5.40;;;12.80;73.80;;;;;;5114196;28;20039;-69
2021/04/23 06:28:30;;;;;;;7.45;5.72;;;12.80;74.40;;;;;;5114438;28;20024;-69
2021/04/23 06:30:56;;;;;;;6.93;5.18;;;12.90;73.90;;;;;;5114184;28;20063;-70
2021/04/23 06:33:26;;;;;;;7.22;5.05;;;12.90;73.10;;;;;;5114152;28;20388;-69
2021/04/23 06:35:52;;;;;;;15.23;6.30;;;13.00;72.70;;;;;;5114055;28;20480;-69
2021/04/23 06:38:17;;;;;;;6.50;5.03;;;13.10;72.10;;;;;;5113939;28;20036;-69
2021/04/23 06:40:43;;;;;;;8.30;5.35;;;13.10;71.50;;;;;;5113057;28;20020;-69
2021/04/23 06:43:10;;;;;;;8.30;5.18;;;13.20;71.20;;;;;;5113511;28;20365;-69
2021/04/23 06:45:36;;;;;;;7.82;4.78;;;13.30;71.00;;;;;;5113618;28;20036;-69
2021/04/23 06:48:02;;;;;;;6.10;4.68;;;13.30;70.30;;;;;;5113442;28;20092;-70
2021/04/23 06:50:28;;;;;;;6.38;5.18;;;13.40;70.50;;;;;;5112985;28;20548;-69
2021/04/23 06:52:55;;;;;;;7.75;5.07;;;13.50;69.70;;;;;;5113447;28;20105;-70
2021/04/23 06:55:22;;;;;;;6.15;4.53;;;13.60;69.40;;;;;;5112832;28;20071;-70
2021/04/23 06:57:49;;;;;;;7.78;4.45;;;13.70;68.20;;;;;;5113877;28;20015;-70
2021/04/23 07:00:22;;;;;;;8.00;4.53;;;13.70;68.50;;;;;;5113033;28;20476;-69
2021/04/23 07:02:48;;;;;;;5.82;4.85;;;13.80;68.30;;;;;;5112597;28;20024;-69
2021/04/23 07:05:14;;;;;;;5.93;4.55;;;13.80;67.60;;;;;;5112867;28;20373;-68
2021/04/23 07:07:40;;;;;;;8.45;4.88;;;13.90;67.60;;;;;;5111797;28;20024;-73
2021/04/23 07:10:09;;;;;;;6.78;5.15;;;13.90;67.80;;;;;;5112560;28;20472;-69
2021/04/23 07:12:35;;;;;;;7.10;4.47;;;14.00;67.90;;;;;;5112037;28;20468;-69
2021/04/23 07:15:03;;;;;;;7.88;5.28;;;14.00;67.50;;;;;;5113413;28;20020;-69
2021/04/23 07:17:29;;;;;;;10.15;4.63;;;14.10;67.50;;;;;;5112460;28;20019;-68
2021/04/23 07:19:54;;;;;;;6.55;4.80;;;14.10;67.70;;;;;;5113166;28;20034;-69
2021/04/23 07:22:20;;;;;;;12.45;4.75;;;14.20;67.60;;;;;;5112278;28;20115;-69
2021/04/23 07:24:46;;;;;;;8.90;4.88;;;14.20;67.50;;;;;;5111676;28;20120;-69
2021/04/23 07:27:12;;;;;;;8.93;5.38;;;14.30;65.70;;;;;;5111637;28;20031;-70
2021/04/23 07:29:38;;;;;;;7.03;4.85;;;14.30;63.70;;;;;;5112172;28;20383;-72
2021/04/23 07:32:04;;;;;;;8.95;5.18;;;14.40;63.40;;;;;;5111870;28;20054;-68
2021/04/23 07:34:30;;;;;;;6.78;4.63;;;14.40;62.60;;;;;;5112032;28;20028;-69
2021/04/23 07:36:56;;;;;;;5.28;4.32;;;14.50;62.30;;;;;;5112009;28;20513;-69
2021/04/23 07:39:26;;;;;;;5.72;4.78;;;14.50;62.40;;;;;;5112035;28;20088;-68
2021/04/23 07:41:53;;;;;;;6.95;4.68;;;14.60;61.90;;;;;;5111539;28;20365;-69
2021/04/23 07:44:20;;;;;;;7.60;4.15;;;14.60;62.10;;;;;;5091802;28;20104;-69
2021/04/23 07:46:46;;;;;;;7.13;4.18;;;14.60;62.60;;;;;;5092797;28;20151;-75
2021/04/23 07:49:11;;;;;;;6.45;4.50;;;14.70;61.80;;;;;;5112293;28;20106;-70
2021/04/23 07:51:37;;;;;;;6.85;4.15;;;14.80;60.70;;;;;;5109657;28;20020;-69
2021/04/23 07:54:03;;;;;;;5.53;4.30;;;14.80;59.20;;;;;;5107871;28;20024;-70
2021/04/23 07:56:29;;;;;;;5.63;3.90;;;14.80;60.80;;;;;;5107722;28;20035;-71
2021/04/23 07:58:55;;;;;;;6.15;4.07;;;14.90;61.00;;;;;;5110628;28;20381;-72
2021/04/23 08:01:21;;;;;;;5.22;3.75;;;14.90;61.60;;;;;;5110569;28;20058;-70
2021/04/23 08:03:46;;;;;;;7.40;4.07;;;15.00;61.00;;;;;;5112412;28;20094;-69
2021/04/23 08:06:12;;;;;;;7.43;4.28;;;15.10;60.00;;;;;;5113033;28;20024;-74
2021/04/23 08:08:38;;;;;;;6.47;3.55;;;15.20;59.80;;;;;;5115645;28;20020;-74
2021/04/23 08:11:03;;;;;;;6.05;4.00;;;15.30;59.00;;;;;;5116823;28;20024;-74
2021/04/23 08:13:29;;;;;;;7.20;3.85;;;15.30;57.30;;;;;;5116996;28;20024;-74
2021/04/23 08:15:55;;;;;;;4.80;3.40;;;15.30;58.00;;;;;;5116786;28;20024;-73
2021/04/23 08:18:20;;;;;;;8.48;3.75;;;15.40;58.80;;;;;;5116867;28;20016;-73
2021/04/23 08:20:49;;;;;;;6.05;3.10;;;15.50;59.70;;;;;;5116875;28;20020;-74
2021/04/23 08:23:15;;;;;;;4.95;3.50;;;15.60;58.90;;;;;;5116874;28;20028;-73
2021/04/23 08:25:41;;;;;;;6.25;3.60;;;15.60;57.70;;;;;;5116688;28;20044;-74
2021/04/23 08:28:06;;;;;;;6.13;3.60;;;15.70;57.30;;;;;;5115784;28;20047;-74
2021/04/23 08:30:32;;;;;;;8.27;3.78;;;15.80;56.00;;;;;;5116660;28;20383;-73
2021/04/23 08:32:58;;;;;;;6.85;3.30;;;15.80;56.60;;;;;;5116421;28;20111;-73
2021/04/23 08:35:25;;;;;;;6.07;3.30;;;15.90;56.50;;;;;;5116527;28;20464;-73
2021/04/23 08:37:51;;;;;;;3.97;3.00;;;16.00;56.80;;;;;;5116650;28;20088;-74
2021/04/23 08:40:19;;;;;;;4.57;3.20;;;16.00;57.30;;;;;;5116632;28;20020;-74
2021/04/23 08:42:45;;;;;;;9.55;3.50;;;16.10;56.30;;;;;;5116590;28;20020;-72
2021/04/23 08:45:16;;;;;;;7.68;3.00;;;16.20;55.20;;;;;;5116204;28;20116;-73
2021/04/23 08:47:44;;;;;;;5.40;3.10;;;16.20;54.70;;;;;;5116212;28;20020;-74
2021/04/23 08:50:11;;;;;;;5.28;3.20;;;16.20;54.30;;;;;;5115924;28;20051;-74
2021/04/23 08:52:40;;;;;;;6.00;3.50;;;16.30;55.00;;;;;;5115363;28;20016;-70
2021/04/23 08:55:06;;;;;;;4.68;3.05;;;16.30;54.20;;;;;;5115898;28;20105;-70
2021/04/23 08:57:32;;;;;;;5.82;3.28;;;16.40;55.00;;;;;;5115890;28;20023;-73
2021/04/23 08:59:57;;;;;;;8.13;3.42;;;16.40;55.20;;;;;;5115542;28;20028;-73
2021/04/23 09:02:23;;;;;;;6.20;3.03;;;16.50;54.40;;;;;;5115310;28;20024;-71
2021/04/23 09:04:49;;;;;;;7.38;3.47;;;16.60;54.60;;;;;;5115478;28;20106;-74
2021/04/23 09:07:15;;;;;;;5.65;2.95;;;16.60;53.30;;;;;;5115563;28;20031;-74
2021/04/23 09:09:43;;;;;;;6.18;3.17;;;16.70;53.40;;;;;;5115491;28;20071;-72
2021/04/23 09:12:24;;;;;;;4.35;2.95;;;16.70;51.30;;;;;;5115365;28;20046;-73
2021/04/23 09:14:54;;;;;;;5.03;3.00;;;16.70;52.50;;;;;;5115942;28;20030;-74
2021/04/23 09:17:26;;;;;;;7.13;3.40;;;16.90;53.90;;;;;;5115594;28;20027;-75
2021/04/23 09:19:53;;;;;;;6.55;2.63;;;16.90;52.80;;;;;;5115730;28;20484;-75
2021/04/23 09:22:22;;;;;;;5.03;2.75;;;17.00;53.00;;;;;;5114455;28;20383;-74
2021/04/23 09:25:10;;;;;;;6.18;3.00;;;17.10;51.70;;;;;;5115256;28;20444;-75
2021/04/23 09:27:41;;;;;;;5.15;2.80;;;17.20;51.70;;;;;;5115923;28;20027;-74
2021/04/23 09:30:10;;;;;;;6.55;2.80;;;17.20;51.40;;;;;;5115552;28;20028;-74
2021/04/23 09:32:38;;;;;;;5.95;3.47;;;17.30;49.90;;;;;;5115664;28;20034;-74
2021/04/23 09:35:20;;;;;;;7.82;2.80;;;17.30;50.70;;;;;;5115531;28;20023;-75
2021/04/23 09:37:54;;;;;;;3.97;2.67;;;17.40;51.70;;;;;;5115585;28;20084;-74
2021/04/23 09:40:23;;;;;;;6.05;3.10;;;17.40;51.30;;;;;;5115100;28;20055;-75
2021/04/23 09:42:57;;;;;;;5.78;3.22;;;17.60;50.70;;;;;;5115452;28;20034;-72
2021/04/23 09:45:25;;;;;;;4.80;3.30;;;17.70;51.20;;;;;;5115256;28;20035;-73
2021/04/23 09:47:52;;;;;;;6.80;3.17;;;17.80;49.80;;;;;;5115276;28;20054;-74
2021/04/23 09:50:20;;;;;;;5.05;3.00;;;17.80;48.50;;;;;;5115316;28;20119;-74
2021/04/23 09:52:47;;;;;;;5.07;2.60;;;17.90;47.90;;;;;;5114942;28;20073;-72
2021/04/23 09:55:14;;;;;;;5.68;3.10;;;17.90;48.20;;;;;;5114038;28;20122;-74
2021/04/23 09:57:51;;;;;;;5.93;2.40;;;18.00;50.10;;;;;;5114246;28;20106;-74
2021/04/23 10:00:19;;;;;;;5.35;3.38;;;18.10;48.70;;;;;;5112185;28;20059;-72
2021/04/23 10:02:49;;;;;;;5.43;2.70;;;18.20;48.90;;;;;;5112351;28;20027;-74
2021/04/23 10:05:27;;;;;;;8.48;2.90;;;18.20;45.80;;;;;;5114662;28;20028;-75
2021/04/23 10:07:52;;;;;;;4.20;2.88;;;18.30;48.90;;;;;;5115268;28;20027;-74
2021/04/23 10:10:18;;;;;;;23.45;3.38;;;18.40;49.30;;;;;;5114905;28;20028;-73
2021/04/23 10:12:53;;;;;;;4.40;2.75;;;18.50;48.50;;;;;;5113543;28;20028;-74
2021/04/23 10:15:51;;;;;;;6.53;3.10;;;18.60;48.50;;;;;;5114869;28;20024;-75
2021/04/23 10:18:16;;;;;;;4.55;2.95;;;18.70;47.10;;;;;;5080466;28;20090;-74
2021/04/23 10:20:48;;;;;;;4.13;2.90;;;18.70;45.50;;;;;;5114891;28;20447;-74
2021/04/23 10:23:17;;;;;;;6.45;3.10;;;18.70;45.10;;;;;;5114657;28;20030;-74
2021/04/23 10:25:43;;;;;;;5.43;3.00;;;18.70;45.20;;;;;;5114470;28;20499;-74
2021/04/23 10:28:11;;;;;;;4.70;2.58;;;18.70;45.10;;;;;;5114704;28;20135;-73
2021/04/23 10:30:40;;;;;;;5.03;2.97;;;18.70;44.10;;;;;;5113700;28;20112;-74
2021/04/23 10:33:11;;;;;;;4.63;2.67;;;18.80;45.60;;;;;;5114757;28;20051;-75
2021/04/23 10:35:39;;;;;;;4.40;2.40;;;18.90;45.10;;;;;;5114332;28;20027;-74
2021/04/23 10:38:08;;;;;;;5.28;2.63;;;19.00;44.90;;;;;;5114458;28;20027;-75
2021/04/23 10:40:35;;;;;;;4.15;2.58;;;19.10;44.30;;;;;;5114490;28;20128;-74
2021/04/23 10:43:16;;;;;;;5.82;2.85;;;19.10;44.30;;;;;;5114300;28;20069;-74
2021/04/23 10:45:44;;;;;;;3.63;2.40;;;19.10;44.30;;;;;;5113362;28;20039;-74
2021/04/23 10:48:14;;;;;;;5.68;2.60;;;;;;;;;;5114083;28;20030;-76
2021/04/23 10:50:42;;;;;;;3.85;2.50;;;19.10;44.60;;;;;;5114022;28;20081;-75
2021/04/23 10:53:09;;;;;;;5.60;2.50;;;19.20;44.30;;;;;;5114136;28;20023;-75
2021/04/23 10:55:41;;;;;;;5.50;2.40;;;19.30;43.60;;;;;;5113989;28;20028;-74
2021/04/23 10:58:09;;;;;;;6.25;2.83;;;19.40;43.50;;;;;;5111623;28;20054;-70
2021/04/23 11:00:39;;;;;;;3.03;2.38;;;19.50;43.10;;;;;;5110860;28;20112;-71
2021/04/23 11:03:24;;;;;;;4.95;2.28;;;19.60;43.20;;;;;;5110193;28;20020;-73
2021/04/23 11:06:16;;;;;;;9.82;2.80;;;19.80;44.20;;;;;;5113835;28;20400;-75
2021/04/23 11:09:00;;;;;;;4.90;2.03;;;19.90;40.30;;;;;;5090345;27;20077;-75
2021/04/23 11:11:33;;;;;;;5.60;2.17;;;20.00;40.80;;;;;;5113633;28;20035;-73
2021/04/23 11:14:24;;;;;;;2.50;1.88;;;20.10;41.50;;;;;;5113955;28;20024;-69
2021/04/23 11:16:55;;;;;;;3.05;2.17;;;20.10;42.60;;;;;;5113764;28;20015;-72
2021/04/23 11:19:21;;;;;;;4.97;2.45;;;20.20;42.70;;;;;;5113862;28;20031;-73
2021/04/23 11:21:48;;;;;;;3.72;2.05;;;20.30;38.70;;;;;;5114057;28;20016;-72
2021/04/23 11:24:15;;;;;;;7.70;2.25;;;20.30;40.20;;;;;;5110663;28;20583;-74
2021/04/23 11:26:57;;;;;;;4.10;2.33;;;20.30;41.50;;;;;;5110510;28;20031;-74
2021/04/23 11:29:36;;;;;;;6.03;2.75;;;20.40;41.50;;;;;;5111413;28;20028;-72
2021/04/23 11:32:14;;;;;;;3.13;2.03;;;20.40;40.70;;;;;;5113098;28;20019;-73
2021/04/23 11:34:39;;;;;;;4.90;2.28;;;20.40;41.00;;;;;;5113363;28;20480;-74
2021/04/23 11:37:13;;;;;;;4.35;2.50;;;20.30;41.20;;;;;;5113277;28;20034;-72
2021/04/23 11:39:43;;;;;;;3.83;2.40;;;20.30;41.10;;;;;;5113558;28;20029;-74
2021/04/23 11:42:19;;;;;;;3.85;2.30;;;20.20;40.70;;;;;;5116646;28;20201;-73
2021/04/23 11:44:54;;;;;;;3.20;2.45;;;20.20;41.30;;;;;;5117569;28;20043;-73
2021/04/23 11:47:26;;;;;;;6.32;2.40;;;20.20;41.40;;;;;;5117438;28;20023;-73
2021/04/23 11:50:16;;;;;;;4.45;2.25;;;20.20;41.90;;;;;;5117440;28;20092;-73
2021/04/23 11:52:44;;;;;;;2.33;1.90;;;20.30;40.60;;;;;;5117343;28;20057;-71
2021/04/23 11:55:25;;;;;;;4.47;2.22;;;20.40;42.40;;;;;;5117571;28;20391;-67
2021/04/23 11:58:14;;;;;;;4.10;2.30;;;20.40;41.60;;;;;;5117467;28;20391;-73
2021/04/23 12:00:42;;;;;;;6.57;2.13;;;20.40;41.70;;;;;;5117038;28;20137;-67
2021/04/23 12:03:12;;;;;;;4.95;2.20;;;20.40;40.70;;;;;;5117368;28;20383;-68
2021/04/23 12:05:48;;;;;;;2.80;1.75;;;20.50;41.10;;;;;;5116967;28;20035;-68
2021/04/23 12:08:21;;;;;;;3.97;2.28;;;20.50;39.90;;;;;;5117271;28;20028;-67
2021/04/23 12:10:50;;;;;;;6.00;2.15;;;20.60;37.50;;;;;;5116783;28;20024;-72
2021/04/23 12:13:18;;;;;;;5.55;2.20;;;20.60;37.70;;;;;;5116953;28;20375;-70
2021/04/23 12:15:45;;;;;;;3.60;2.40;;;20.60;40.20;;;;;;5116680;28;20032;-70
2021/04/23 12:18:13;;;;;;;2.92;1.80;;;20.70;40.90;;;;;;5116786;28;20120;-72
2021/04/23 12:20:50;;;;;;;5.25;2.40;;;20.70;38.60;;;;;;5116499;28;20023;-72
2021/04/23 12:23:21;;;;;;;3.58;2.17;;;20.80;39.60;;;;;;5116658;28;20090;-72
2021/04/23 12:25:58;;;;;;;2.80;2.05;;;20.90;39.00;;;;;;5116343;28;20480;-72
2021/04/23 12:28:43;;;;;;;3.45;2.08;;;20.80;39.50;;;;;;5116066;28;20020;-73
2021/04/23 12:31:19;;;;;;;3.60;2.13;;;20.80;38.90;;;;;;5116283;28;20440;-72
2021/04/23 12:34:04;;;;;;;3.33;2.13;;;20.80;38.70;;;;;;5116979;28;20093;-72
2021/04/23 12:36:36;;;;;;;3.58;2.00;;;20.70;37.80;;;;;;5116894;28;20023;-72
2021/04/23 12:39:15;;;;;;;2.70;2.40;;;20.70;39.80;;;;;;5116427;28;20024;-71
2021/04/23 12:41:56;;;;;;;2.42;1.75;;;20.70;39.50;;;;;;5116239;28;20027;-72
2021/04/23 12:44:25;;;;;;;6.13;2.30;;;20.60;37.80;;;;;;5116616;28;20028;-69
2021/04/23 12:46:51;;;;;;;2.75;2.00;;;20.50;37.70;;;;;;5116334;28;20031;-73
2021/04/23 12:49:19;;;;;;;4.90;2.03;;;20.50;39.50;;;;;;5116380;28;20023;-68
2021/04/23 12:51:49;;;;;;;2.97;2.30;;;20.60;40.30;;;;;;5115769;28;20028;-72